MUHA

Jose Marti International Airport

Airport
ICAO code
MUHA
IATA Code
HAV
Summary
ICAO Region
CARSAM
ICAO Territory
Location

Boyeros, Havana

Serving
Havana
Elevation
210 ft
Coordinates
22° 59' 23" N , 82° 24' 30" W
KCC
Airport WX
Tropical Revolving Storm
Metar
Observation
MUHA 281050Z 34003KT 9000 NSC 20/19 Q1016
Station
Aeropuerto Jose Marti, Rancho-Boyeros, Habana
Date/Time
2022-11-28 10:50:00
Wind direction
340°
Wind speed
03 kts
Lowest cloud amount
nil significant cloud
Temperature
20°C
Dew point
19°C
Humidity
93%
QNH
1016 hPa
Weather condition
n/a

José Martí International Airport, previously called El Rancho Boyeros International Airport, is located 15 km southwest of Havana, Cuba, and is a hub for Cubana de Aviación, Aerogaviota and Aerocaribbean. The airport lies in the municipality of Boyeros.

Climatology

Tropical Savanna climate (Köppen climate classification Aw)

Runways

Designator Length Width Surface Rops
6/24 4000 45 ASP Yes/Yes

Airport map

Aerial View

SKYbrary Partners:

Safety knowledge contributed by: